Time;durP1;ratioP1;P1;durP2;ratioP2;P2;SDS_P1;SDS_P2;PMS_P1;PMS_P2;Temp;Humidity;BMP_temperature;BMP_pressure;BME280_temperature;BME280_humidity;BME280_pressure;Samples;Min_cycle;Max_cycle;Signal;HPM_P1;HPM_P2
2021/12/11 00:02:22;;;;;;;1.50;1.40;;;4.00;77.30;;;;;;4959540;28;20462;-79
2021/12/11 00:04:55;;;;;;;2.70;2.13;;;4.00;77.60;;;;;;4958807;28;20462;-79
2021/12/11 00:07:22;;;;;;;2.07;1.87;;;4.00;76.60;;;;;;4959073;28;20880;-78
2021/12/11 00:10:00;;;;;;;3.40;1.93;;;4.00;76.70;;;;;;4959443;28;20457;-79
2021/12/11 00:12:32;;;;;;;1.83;1.73;;;4.00;77.00;;;;;;4959646;28;20501;-79
2021/12/11 00:15:13;;;;;;;1.83;1.73;;;4.00;76.60;;;;;;4959082;28;20825;-79
2021/12/11 00:17:39;;;;;;;1.70;1.60;;;4.00;76.60;;;;;;4959009;28;20457;-78
2021/12/11 00:20:08;;;;;;;1.60;1.50;;;4.00;76.10;;;;;;4951558;28;20453;-78
2021/12/11 00:22:35;;;;;;;2.03;1.83;;;3.90;73.50;;;;;;4958999;28;20228;-79
2021/12/11 00:25:09;;;;;;;1.90;1.80;;;3.90;75.10;;;;;;4957554;28;20450;-79
2021/12/11 00:27:38;;;;;;;1.67;1.57;;;4.00;74.10;;;;;;4958391;28;20442;-79
2021/12/11 00:30:10;;;;;;;3.03;1.43;;;4.00;72.80;;;;;;4958798;28;20453;-79
2021/12/11 00:32:37;;;;;;;2.10;1.40;;;4.00;74.60;;;;;;4953026;28;20552;-79
2021/12/11 00:35:15;;;;;;;1.70;1.60;;;4.10;75.10;;;;;;4959452;28;20456;-79
2021/12/11 00:37:41;;;;;;;2.20;1.77;;;4.10;74.60;;;;;;4958023;28;20461;-78
2021/12/11 00:40:26;;;;;;;2.20;1.60;;;4.10;73.30;;;;;;4959413;28;20461;-79
2021/12/11 00:42:56;;;;;;;1.30;1.20;;;4.20;72.70;;;;;;4973897;28;20473;-78
2021/12/11 00:45:27;;;;;;;1.43;1.30;;;4.20;74.00;;;;;;4960244;28;21028;-78
2021/12/11 00:47:57;;;;;;;1.50;1.40;;;4.20;74.30;;;;;;4961371;28;20941;-79
2021/12/11 00:50:40;;;;;;;2.20;1.40;;;4.10;73.00;;;;;;4965002;28;20461;-79
2021/12/11 00:53:14;;;;;;;1.20;1.10;;;4.10;72.60;;;;;;4962665;28;20465;-77
2021/12/11 00:55:47;;;;;;;1.40;1.30;;;4.00;72.30;;;;;;4959935;28;20825;-78
2021/12/11 00:58:34;;;;;;;2.70;1.93;;;4.00;73.20;;;;;;4962060;28;20519;-78
2021/12/11 01:01:06;;;;;;;1.90;1.80;;;4.00;73.70;;;;;;4962434;28;20498;-78
2021/12/11 01:03:37;;;;;;;2.90;1.60;;;3.90;73.30;;;;;;4960422;28;20453;-79
2021/12/11 01:06:13;;;;;;;1.90;1.80;;;3.80;73.60;;;;;;4962005;28;20453;-82
2021/12/11 01:08:43;;;;;;;1.73;1.63;;;3.70;73.70;;;;;;4962235;28;20515;-83
2021/12/11 01:11:13;;;;;;;2.00;1.90;;;3.60;73.80;;;;;;4964933;28;20824;-82
2021/12/11 01:13:46;;;;;;;2.17;2.07;;;3.50;73.60;;;;;;4962374;28;20457;-83
2021/12/11 01:16:15;;;;;;;2.00;1.70;;;3.20;74.70;;;;;;4963748;28;20454;-82
2021/12/11 01:18:45;;;;;;;2.10;1.90;;;3.10;75.80;;;;;;4964253;28;20526;-83
2021/12/11 01:26:34;;;;;;;2.13;2.03;;;2.90;78.70;;;;;;4963617;28;20461;-83
2021/12/11 01:29:00;;;;;;;1.70;1.60;;;2.90;79.20;;;;;;4962996;28;20454;-83
2021/12/11 01:31:27;;;;;;;2.20;2.10;;;2.90;78.00;;;;;;4960538;28;20457;-83
2021/12/11 01:33:55;;;;;;;1.70;1.60;;;2.90;81.20;;;;;;4962290;28;20720;-83
2021/12/11 01:36:21;;;;;;;2.97;2.53;;;2.90;80.50;;;;;;4960674;28;20714;-82
2021/12/11 01:38:52;;;;;;;2.22;2.13;;;2.90;81.40;;;;;;4960991;28;20457;-83
2021/12/11 01:41:20;;;;;;;1.77;1.67;;;2.90;81.10;;;;;;4961293;28;20494;-83
2021/12/11 01:43:50;;;;;;;2.03;1.92;;;2.90;81.10;;;;;;4960707;28;20233;-83
2021/12/11 01:46:20;;;;;;;2.10;2.00;;;2.90;80.50;;;;;;4960830;28;20297;-84
2021/12/11 01:48:49;;;;;;;3.58;1.98;;;3.00;81.60;;;;;;4961131;28;20720;-84
2021/12/11 01:51:22;;;;;;;1.60;1.50;;;2.90;83.10;;;;;;4960812;28;20234;-82
2021/12/11 01:53:56;;;;;;;1.47;1.37;;;2.90;80.50;;;;;;4961328;28;21036;-84
2021/12/11 01:56:27;;;;;;;1.60;1.50;;;2.90;81.40;;;;;;4960629;28;20509;-83
2021/12/11 01:59:00;;;;;;;1.50;1.40;;;2.90;79.50;;;;;;4960314;28;20694;-84
2021/12/11 02:01:51;;;;;;;1.27;1.27;;;2.90;80.50;;;;;;4960498;28;20535;-84
2021/12/11 02:04:20;;;;;;;1.60;1.50;;;2.90;81.10;;;;;;4961155;28;20448;-84
2021/12/11 02:06:49;;;;;;;1.60;1.50;;;2.90;81.20;;;;;;4961022;28;20233;-82
2021/12/11 02:09:19;;;;;;;1.40;1.30;;;2.90;81.70;;;;;;4963008;28;20269;-83
2021/12/11 02:11:48;;;;;;;1.50;1.40;;;2.90;82.50;;;;;;4961126;28;20828;-83
2021/12/11 02:14:19;;;;;;;1.10;1.00;;;3.00;84.60;;;;;;4960662;28;20529;-84
2021/12/11 02:16:48;;;;;;;1.38;1.27;;;3.00;85.30;;;;;;4961054;28;20457;-84
2021/12/11 02:19:17;;;;;;;1.80;1.17;;;2.90;85.20;;;;;;4960919;28;20269;-84
2021/12/11 02:21:56;;;;;;;1.48;1.38;;;2.90;86.10;;;;;;4958619;28;20450;-84
2021/12/11 02:24:25;;;;;;;1.00;1.00;;;2.90;83.80;;;;;;4960235;28;20261;-84
2021/12/11 02:26:54;;;;;;;1.10;1.10;;;2.80;83.00;;;;;;4963421;28;20789;-83
2021/12/11 02:29:27;;;;;;;0.80;0.80;;;2.80;83.00;;;;;;4960382;28;20872;-84
2021/12/11 02:31:58;;;;;;;2.10;1.20;;;2.80;83.70;;;;;;4957870;28;20461;-83
2021/12/11 02:34:27;;;;;;;1.40;1.30;;;2.70;83.80;;;;;;4960538;28;20447;-84
2021/12/11 02:36:54;;;;;;;0.80;0.80;;;2.60;82.80;;;;;;4960595;28;20529;-78
2021/12/11 02:39:45;;;;;;;0.70;0.70;;;2.60;83.70;;;;;;4976827;28;20858;-79
2021/12/11 02:42:25;;;;;;;1.10;1.10;;;2.60;84.90;;;;;;4959258;28;20458;-78
2021/12/11 02:45:10;;;;;;;0.90;0.90;;;2.60;84.90;;;;;;4994453;28;20813;-79
2021/12/11 02:47:53;;;;;;;1.00;1.00;;;2.50;83.30;;;;;;4979633;28;20531;-78
2021/12/11 02:50:33;;;;;;;1.10;1.10;;;2.60;84.90;;;;;;4979960;28;20441;-78
2021/12/11 02:53:13;;;;;;;1.10;1.10;;;2.70;86.40;;;;;;4978075;28;20509;-79
2021/12/11 02:56:15;;;;;;;0.80;0.80;;;2.60;87.10;;;;;;4979391;28;20253;-85
2021/12/11 02:58:45;;;;;;;1.15;1.10;;;2.60;85.50;;;;;;4979069;28;20348;-85
2021/12/11 03:01:22;;;;;;;0.90;0.90;;;2.70;86.00;;;;;;4978074;28;20232;-84
2021/12/11 03:03:56;;;;;;;1.15;1.15;;;2.70;85.00;;;;;;4979822;28;20475;-84
2021/12/11 03:06:26;;;;;;;1.35;1.27;;;2.70;86.70;;;;;;4980032;28;20245;-84
2021/12/11 03:08:56;;;;;;;1.08;1.08;;;2.80;86.20;;;;;;4979550;28;20229;-84
2021/12/11 03:11:25;;;;;;;1.08;1.05;;;2.80;84.00;;;;;;4978685;28;20228;-83
2021/12/11 03:13:54;;;;;;;1.23;1.23;;;2.80;86.00;;;;;;4980847;28;20241;-84
2021/12/11 03:16:24;;;;;;;1.60;1.50;;;2.90;86.80;;;;;;4980456;28;20463;-84
2021/12/11 03:18:50;;;;;;;1.40;1.30;;;2.90;87.00;;;;;;4982473;28;20708;-84
2021/12/11 03:21:16;;;;;;;1.57;1.50;;;2.90;86.90;;;;;;4984017;28;20528;-85
2021/12/11 03:23:43;;;;;;;1.17;1.10;;;2.90;87.20;;;;;;4982252;28;20473;-86
2021/12/11 03:26:09;;;;;;;1.77;1.67;;;3.00;87.80;;;;;;4984981;28;20453;-83
2021/12/11 03:28:35;;;;;;;1.80;1.70;;;3.00;86.90;;;;;;4980034;28;20480;-83
2021/12/11 03:31:03;;;;;;;1.40;1.37;;;3.00;86.30;;;;;;4981069;28;21201;-84
2021/12/11 03:33:35;;;;;;;1.37;1.37;;;3.00;85.30;;;;;;4981354;28;20507;-83
2021/12/11 03:36:02;;;;;;;1.50;1.40;;;3.00;86.80;;;;;;4980884;28;20459;-83
2021/12/11 03:38:29;;;;;;;1.70;1.60;;;3.10;84.50;;;;;;4980342;28;20519;-85
2021/12/11 03:40:56;;;;;;;1.90;1.80;;;3.00;84.40;;;;;;4980233;28;20547;-84
2021/12/11 03:43:25;;;;;;;2.03;1.93;;;3.00;84.70;;;;;;4980713;28;20495;-84
2021/12/11 03:45:54;;;;;;;2.37;2.17;;;3.10;83.80;;;;;;4979799;28;20480;-84
2021/12/11 03:48:39;;;;;;;2.37;2.27;;;3.10;85.00;;;;;;4979591;28;20465;-84
2021/12/11 03:51:09;;;;;;;2.27;2.17;;;3.10;84.30;;;;;;4993275;28;21240;-84
2021/12/11 03:53:35;;;;;;;2.60;2.40;;;3.10;80.40;;;;;;4980271;28;20471;-84
2021/12/11 03:56:06;;;;;;;2.40;2.30;;;3.10;81.40;;;;;;4977454;28;20453;-84
2021/12/11 03:58:32;;;;;;;2.00;1.90;;;3.10;83.30;;;;;;4976005;28;20457;-84
2021/12/11 04:01:16;;;;;;;2.43;2.33;;;3.10;81.40;;;;;;4978204;28;20235;-84
2021/12/11 04:03:46;;;;;;;3.55;3.35;;;3.10;82.30;;;;;;4977574;28;20468;-84
2021/12/11 04:06:14;;;;;;;3.10;2.90;;;3.20;83.00;;;;;;4978184;28;20584;-83
2021/12/11 04:08:41;;;;;;;2.90;2.70;;;3.10;80.90;;;;;;4977286;28;20879;-85
2021/12/11 04:11:19;;;;;;;2.70;2.50;;;3.00;78.90;;;;;;4959556;28;20469;-83
2021/12/11 04:13:48;;;;;;;3.20;3.00;;;3.00;81.00;;;;;;4958668;28;20433;-84
2021/12/11 04:16:15;;;;;;;3.30;3.10;;;3.10;83.50;;;;;;4958941;28;20464;-84
2021/12/11 04:18:41;;;;;;;2.40;2.30;;;3.10;81.10;;;;;;4960232;28;20457;-83
2021/12/11 04:21:08;;;;;;;3.88;3.67;;;3.00;80.50;;;;;;4957344;28;20653;-84
2021/12/11 04:23:34;;;;;;;3.53;3.33;;;3.00;82.80;;;;;;4956573;28;20232;-84
2021/12/11 04:26:01;;;;;;;3.77;3.57;;;3.00;82.60;;;;;;4959324;28;20468;-84
2021/12/11 04:28:30;;;;;;;3.60;3.40;;;3.10;83.90;;;;;;4959069;28;20465;-84
2021/12/11 04:31:05;;;;;;;3.57;3.37;;;3.10;83.20;;;;;;4959880;28;20470;-84
2021/12/11 04:33:39;;;;;;;3.80;3.60;;;3.10;82.00;;;;;;4958537;28;20553;-84
2021/12/11 04:36:11;;;;;;;3.33;3.20;;;3.10;81.90;;;;;;4956690;28;20983;-84
2021/12/11 04:38:39;;;;;;;3.93;3.73;;;3.00;81.70;;;;;;4959136;28;20248;-84
2021/12/11 04:41:06;;;;;;;4.87;4.47;;;3.00;81.90;;;;;;4961619;28;20513;-85
2021/12/11 04:43:33;;;;;;;3.80;3.60;;;3.10;82.90;;;;;;4959856;28;20803;-83
2021/12/11 04:46:08;;;;;;;3.80;3.60;;;3.10;82.40;;;;;;4959215;28;20458;-83
2021/12/11 04:49:10;;;;;;;3.83;3.63;;;3.10;82.40;;;;;;4958094;28;20583;-83
2021/12/11 04:51:47;;;;;;;4.07;3.87;;;3.10;84.30;;;;;;4959691;28;20461;-83
2021/12/11 05:07:43;;;;;;;4.13;3.93;;;3.20;83.30;;;;;;4980374;28;20460;-84
2021/12/11 05:10:20;;;;;;;4.47;4.17;;;3.20;82.20;;;;;;4979088;28;20843;-84
2021/12/11 05:12:52;;;;;;;5.07;4.77;;;3.10;83.80;;;;;;4979088;28;20531;-82
2021/12/11 05:15:26;;;;;;;4.60;4.30;;;3.10;84.70;;;;;;4979503;28;20872;-83
2021/12/11 05:17:52;;;;;;;5.73;5.33;;;3.10;84.60;;;;;;4978419;28;20444;-84
2021/12/11 05:20:21;;;;;;;5.15;4.82;;;3.10;85.40;;;;;;4994784;28;21015;-84
2021/12/11 05:22:47;;;;;;;5.28;4.97;;;3.20;85.50;;;;;;4982259;28;20233;-83
2021/12/11 05:25:13;;;;;;;4.73;4.47;;;3.10;84.10;;;;;;4978871;28;20281;-84
2021/12/11 05:27:41;;;;;;;5.00;4.70;;;3.20;83.30;;;;;;4978302;28;20495;-84
2021/12/11 05:30:15;;;;;;;5.73;5.40;;;3.20;83.70;;;;;;4977655;28;20460;-84
2021/12/11 05:32:41;;;;;;;5.13;4.73;;;3.20;84.50;;;;;;4978520;28;20582;-84
2021/12/11 05:35:08;;;;;;;4.73;4.43;;;3.10;82.20;;;;;;4981497;28;20957;-84
2021/12/11 05:37:34;;;;;;;5.03;4.70;;;3.10;81.20;;;;;;4981913;28;21055;-85
2021/12/11 05:40:00;;;;;;;4.37;4.17;;;3.10;83.10;;;;;;4982335;28;20449;-84
2021/12/11 05:42:26;;;;;;;4.47;4.27;;;3.10;82.40;;;;;;4983106;28;20970;-84
2021/12/11 05:44:52;;;;;;;5.27;4.97;;;3.10;81.80;;;;;;4983135;28;20789;-84
2021/12/11 05:47:20;;;;;;;5.10;4.80;;;3.10;83.00;;;;;;4982294;28;20630;-83
2021/12/11 05:49:46;;;;;;;5.10;4.80;;;3.00;81.60;;;;;;4982261;28;20961;-83
2021/12/11 05:52:13;;;;;;;5.33;5.03;;;3.10;83.00;;;;;;4981826;28;20449;-83
2021/12/11 05:54:41;;;;;;;6.30;5.90;;;3.10;83.60;;;;;;4980037;28;20529;-83
2021/12/11 05:57:11;;;;;;;5.07;4.78;;;3.10;84.40;;;;;;4984898;28;20656;-83
2021/12/11 05:59:37;;;;;;;6.33;5.90;;;3.10;85.40;;;;;;4982417;28;20218;-84
2021/12/11 06:02:09;;;;;;;5.15;4.85;;;3.10;85.40;;;;;;4982177;28;20452;-84
2021/12/11 06:04:38;;;;;;;6.43;6.03;;;3.10;83.50;;;;;;4982142;28;20758;-83
2021/12/11 06:07:07;;;;;;;5.80;5.43;;;3.20;85.10;;;;;;4981969;28;20474;-83
2021/12/11 06:09:34;;;;;;;5.37;5.07;;;3.10;83.70;;;;;;4982192;28;20480;-83
2021/12/11 06:12:05;;;;;;;6.33;5.93;;;3.20;85.40;;;;;;4981831;28;20472;-83
2021/12/11 06:14:32;;;;;;;6.57;6.17;;;3.20;85.50;;;;;;4981039;28;20484;-84
2021/12/11 06:16:59;;;;;;;6.00;5.60;;;3.10;81.60;;;;;;4981692;28;20495;-84
2021/12/11 06:19:26;;;;;;;7.00;6.50;;;3.10;81.20;;;;;;4981060;28;20491;-85
2021/12/11 06:21:55;;;;;;;7.10;6.60;;;3.00;82.70;;;;;;4983148;28;20445;-84
2021/12/11 06:24:22;;;;;;;7.23;6.83;;;3.00;82.50;;;;;;4980075;28;20990;-83
2021/12/11 06:26:48;;;;;;;7.00;6.60;;;3.00;83.90;;;;;;4981549;28;20501;-84
2021/12/11 06:29:13;;;;;;;6.57;6.17;;;3.10;85.50;;;;;;4981362;28;20524;-84
2021/12/11 06:31:42;;;;;;;7.33;6.83;;;3.10;82.40;;;;;;4980850;28;20575;-84
2021/12/11 06:34:08;;;;;;;8.30;7.70;;;3.10;84.00;;;;;;4981197;28;21232;-86
2021/12/11 06:36:34;;;;;;;6.93;6.43;;;3.10;82.70;;;;;;4981668;28;20511;-84
2021/12/11 06:39:05;;;;;;;7.10;6.60;;;3.10;82.60;;;;;;4981782;28;20953;-83
2021/12/11 06:41:37;;;;;;;7.73;7.20;;;3.10;81.70;;;;;;4980693;28;20717;-85
2021/12/11 06:44:04;;;;;;;9.07;8.47;;;3.10;81.30;;;;;;4980142;28;20463;-85
2021/12/11 06:46:31;;;;;;;7.90;7.37;;;3.20;82.60;;;;;;4980344;28;20467;-84
2021/12/11 06:48:57;;;;;;;7.60;7.00;;;3.10;82.50;;;;;;4980971;28;20465;-84
2021/12/11 06:51:24;;;;;;;7.70;7.20;;;3.10;81.10;;;;;;4980147;28;20851;-83
2021/12/11 06:53:58;;;;;;;9.13;8.50;;;3.10;80.20;;;;;;4981111;28;20844;-83
2021/12/11 06:56:25;;;;;;;7.77;7.27;;;3.10;81.50;;;;;;4978520;28;20460;-83
2021/12/11 06:58:51;;;;;;;7.60;7.10;;;3.00;80.50;;;;;;4980205;28;20519;-78
2021/12/11 07:01:19;;;;;;;8.87;8.27;;;3.10;80.60;;;;;;4980336;28;20457;-78
2021/12/11 07:03:45;;;;;;;8.60;8.00;;;3.20;82.10;;;;;;4979974;28;20535;-78
2021/12/11 07:06:11;;;;;;;9.60;8.80;;;3.10;79.80;;;;;;4981074;28;20544;-78
2021/12/11 07:08:38;;;;;;;8.20;7.60;;;3.10;80.80;;;;;;4961061;28;20790;-77
2021/12/11 07:11:06;;;;;;;9.93;9.13;;;3.20;83.30;;;;;;4961385;28;20468;-78
2021/12/11 07:13:32;;;;;;;9.03;8.23;;;3.10;82.30;;;;;;4957834;28;20462;-84
2021/12/11 07:15:58;;;;;;;10.17;9.37;;;3.10;80.00;;;;;;4961605;28;20961;-84
2021/12/11 07:18:27;;;;;;;8.63;7.97;;;3.10;81.20;;;;;;4960237;28;20247;-84
2021/12/11 07:20:53;;;;;;;9.97;9.27;;;3.10;78.60;;;;;;4959477;28;20461;-83
2021/12/11 07:23:19;;;;;;;9.20;8.53;;;3.10;80.50;;;;;;4961447;28;20533;-83
2021/12/11 07:25:48;;;;;;;9.70;9.00;;;3.00;78.60;;;;;;4961029;28;20569;-84
2021/12/11 07:28:15;;;;;;;9.60;8.90;;;3.00;80.50;;;;;;4962322;28;20895;-83
2021/12/11 07:30:44;;;;;;;10.50;9.70;;;3.10;80.10;;;;;;4962581;28;21243;-82
2021/12/11 07:33:10;;;;;;;10.70;9.80;;;3.10;79.70;;;;;;4960640;28;20458;-82
2021/12/11 07:35:39;;;;;;;10.43;9.60;;;3.20;80.90;;;;;;4961927;28;21104;-82
2021/12/11 07:38:06;;;;;;;10.87;9.97;;;3.10;82.30;;;;;;4960993;28;20465;-81
2021/12/11 07:40:42;;;;;;;9.87;9.17;;;3.20;82.40;;;;;;4961305;28;20453;-83
2021/12/11 07:43:10;;;;;;;10.60;9.80;;;3.10;80.40;;;;;;4961320;28;20453;-82
2021/12/11 07:45:37;;;;;;;10.73;9.93;;;3.20;79.70;;;;;;4960821;28;20480;-82
2021/12/11 07:48:04;;;;;;;10.20;9.40;;;3.20;79.20;;;;;;4962564;28;20502;-82
2021/12/11 07:50:30;;;;;;;11.57;10.67;;;3.20;77.90;;;;;;4962389;28;20469;-83
2021/12/11 07:52:57;;;;;;;12.23;11.20;;;3.20;76.60;;;;;;4960199;28;20477;-83
2021/12/11 07:55:23;;;;;;;12.50;11.60;;;3.20;79.30;;;;;;4962155;28;20813;-83
2021/12/11 07:57:50;;;;;;;12.67;11.57;;;3.20;81.40;;;;;;4953471;28;20483;-82
2021/12/11 08:00:22;;;;;;;11.63;10.73;;;3.20;81.70;;;;;;4958049;28;20457;-82
2021/12/11 08:02:49;;;;;;;12.43;11.50;;;3.30;83.20;;;;;;4960409;28;20553;-82
2021/12/11 08:05:16;;;;;;;13.10;12.10;;;3.20;81.50;;;;;;4962933;28;20500;-82
2021/12/11 08:07:42;;;;;;;13.90;12.60;;;3.30;81.70;;;;;;4962447;28;20460;-82
2021/12/11 08:10:13;;;;;;;13.00;12.00;;;3.20;82.20;;;;;;4960308;28;20457;-81
2021/12/11 08:12:39;;;;;;;12.00;11.00;;;3.30;80.80;;;;;;4959335;28;20502;-82
2021/12/11 08:15:05;;;;;;;13.70;12.63;;;3.30;82.00;;;;;;4958430;28;20450;-81
2021/12/11 08:17:32;;;;;;;12.30;11.30;;;3.30;80.80;;;;;;4961050;28;20492;-83
2021/12/11 08:19:58;;;;;;;12.80;11.80;;;3.40;77.80;;;;;;4959349;28;20942;-83
2021/12/11 08:22:25;;;;;;;12.80;11.83;;;3.30;78.70;;;;;;4960697;28;20488;-83
2021/12/11 08:24:51;;;;;;;14.00;12.80;;;3.30;78.90;;;;;;4960122;28;20450;-84
2021/12/11 08:27:20;;;;;;;13.47;12.37;;;3.30;79.80;;;;;;4961932;28;20965;-86
2021/12/11 08:29:49;;;;;;;13.73;12.50;;;3.30;77.10;;;;;;4976710;28;20912;-84
2021/12/11 08:32:15;;;;;;;12.00;11.10;;;3.40;76.90;;;;;;4977496;28;20819;-84
2021/12/11 08:34:42;;;;;;;13.43;12.20;;;3.40;74.60;;;;;;4976030;28;20488;-81
2021/12/11 08:37:11;;;;;;;14.47;13.27;;;3.30;75.40;;;;;;4974746;28;20733;-81
2021/12/11 08:39:37;;;;;;;13.80;12.50;;;3.30;76.80;;;;;;4976938;28;20452;-81
2021/12/11 08:42:05;;;;;;;14.60;13.40;;;3.30;76.00;;;;;;4974780;28;21034;-82
2021/12/11 08:44:37;;;;;;;15.20;13.70;;;3.30;76.80;;;;;;4976490;28;20456;-84
2021/12/11 08:47:09;;;;;;;16.20;14.80;;;3.30;75.40;;;;;;4976389;28;20467;-85
2021/12/11 08:49:37;;;;;;;15.97;14.47;;;3.30;76.30;;;;;;4976416;28;20531;-84
2021/12/11 08:52:07;;;;;;;15.57;14.17;;;3.30;76.00;;;;;;4975591;28;20771;-85
2021/12/11 08:54:34;;;;;;;13.30;12.13;;;3.40;77.70;;;;;;4978386;28;20484;-85
2021/12/11 08:57:04;;;;;;;14.57;13.27;;;3.40;74.20;;;;;;4976651;28;20556;-85
2021/12/11 08:59:31;;;;;;;14.63;13.43;;;3.40;76.10;;;;;;4976310;28;20489;-84
2021/12/11 09:02:06;;;;;;;14.47;13.27;;;3.40;74.90;;;;;;4975967;28;20935;-85
2021/12/11 09:04:39;;;;;;;16.00;14.60;;;3.40;74.00;;;;;;4975363;28;20468;-83
2021/12/11 09:07:19;;;;;;;15.53;14.07;;;3.40;75.10;;;;;;4978321;28;20459;-85
2021/12/11 09:10:22;;;;;;;15.63;14.43;;;3.50;74.50;;;;;;4978673;28;20456;-84
2021/12/11 09:13:06;;;;;;;14.87;13.67;;;3.40;74.40;;;;;;4978432;28;20509;-85
2021/12/11 09:15:40;;;;;;;15.27;14.07;;;3.50;75.20;;;;;;4982618;28;20448;-85
2021/12/11 09:18:12;;;;;;;15.30;13.83;;;3.50;74.20;;;;;;4982426;28;20455;-85
2021/12/11 09:20:45;;;;;;;15.10;13.80;;;3.50;74.70;;;;;;4970532;28;20454;-85
2021/12/11 09:23:28;;;;;;;13.83;12.47;;;3.70;75.90;;;;;;4979016;28;20457;-84
2021/12/11 09:26:02;;;;;;;13.10;12.03;;;3.80;72.40;;;;;;4941484;28;20458;-81
2021/12/11 09:28:37;;;;;;;13.50;12.23;;;3.70;71.90;;;;;;4956388;28;20931;-81
2021/12/11 09:31:13;;;;;;;14.63;13.43;;;3.80;72.50;;;;;;4958094;28;20805;-81
2021/12/11 09:33:58;;;;;;;13.30;12.23;;;3.90;73.60;;;;;;4940754;28;20466;-81
2021/12/11 09:36:38;;;;;;;13.40;12.40;;;3.90;71.80;;;;;;4917877;28;20461;-82
2021/12/11 09:39:19;;;;;;;13.83;12.70;;;4.20;81.40;;;;;;4955628;28;20460;-82
2021/12/11 09:41:45;;;;;;;14.23;12.93;;;4.20;71.90;;;;;;4958147;28;20561;-82
2021/12/11 09:44:18;;;;;;;12.30;11.00;;;4.10;70.10;;;;;;4956266;28;20609;-80
2021/12/11 09:46:49;;;;;;;11.87;10.77;;;4.10;69.30;;;;;;4958629;28;20230;-82
2021/12/11 09:49:20;;;;;;;11.47;10.57;;;4.10;70.90;;;;;;4955604;28;20466;-82
2021/12/11 09:51:50;;;;;;;10.80;10.00;;;4.10;69.70;;;;;;4957115;28;20505;-82
2021/12/11 09:54:23;;;;;;;11.30;10.40;;;4.10;68.20;;;;;;4955847;28;20459;-81
2021/12/11 09:56:54;;;;;;;13.07;11.97;;;4.20;69.80;;;;;;4958321;28;20462;-81
2021/12/11 09:59:22;;;;;;;11.20;10.17;;;4.10;70.70;;;;;;4959081;28;20454;-81
2021/12/11 10:01:56;;;;;;;11.20;10.17;;;4.10;71.50;;;;;;4974903;28;20454;-81
2021/12/11 10:04:31;;;;;;;10.07;9.27;;;4.10;68.70;;;;;;4980600;28;20449;-81
2021/12/11 10:09:43;;;;;;;10.80;9.90;;;4.20;70.50;;;;;;4974446;28;20512;-80
2021/12/11 10:12:11;;;;;;;9.70;8.90;;;4.10;68.50;;;;;;4960451;28;20454;-81
2021/12/11 10:14:50;;;;;;;10.53;9.73;;;4.20;68.70;;;;;;4960435;28;20469;-81
2021/12/11 10:17:30;;;;;;;9.83;9.03;;;4.20;68.70;;;;;;4945016;28;20464;-81
2021/12/11 10:20:00;;;;;;;9.40;8.60;;;4.20;66.80;;;;;;4958491;28;20462;-81
2021/12/11 10:22:31;;;;;;;10.00;9.30;;;4.10;67.00;;;;;;4960953;28;20450;-81
2021/12/11 10:24:58;;;;;;;7.50;6.90;;;4.20;67.30;;;;;;4951597;28;20449;-81
2021/12/11 10:27:29;;;;;;;8.88;8.07;;;4.20;66.60;;;;;;4959614;28;20522;-80
2021/12/11 10:29:56;;;;;;;8.10;7.30;;;4.20;64.00;;;;;;4950707;28;20257;-81
2021/12/11 10:32:25;;;;;;;8.43;7.67;;;4.20;65.60;;;;;;4960652;28;20458;-81
2021/12/11 10:34:57;;;;;;;9.93;9.03;;;4.20;67.00;;;;;;4960525;28;20438;-80
2021/12/11 10:37:36;;;;;;;9.40;8.20;;;4.30;68.90;;;;;;4958728;28;20446;-81
2021/12/11 10:40:32;;;;;;;9.70;8.90;;;4.30;65.90;;;;;;4961125;28;20449;-81
2021/12/11 10:43:04;;;;;;;10.20;9.40;;;4.30;68.70;;;;;;4955814;28;20450;-82
2021/12/11 10:45:33;;;;;;;9.10;8.40;;;4.30;68.30;;;;;;4967494;28;20453;-80
2021/12/11 10:48:04;;;;;;;8.07;7.37;;;4.30;65.40;;;;;;4960543;28;20893;-82
2021/12/11 10:50:35;;;;;;;8.17;7.63;;;4.30;65.40;;;;;;4981310;28;20810;-85
2021/12/11 10:53:03;;;;;;;8.63;7.93;;;4.30;67.20;;;;;;4979576;28;20520;-87
2021/12/11 10:55:31;;;;;;;8.63;7.80;;;4.30;65.20;;;;;;4963862;28;20976;-86
2021/12/11 10:58:01;;;;;;;9.27;8.40;;;4.30;66.30;;;;;;4961511;28;20457;-82
2021/12/11 11:00:37;;;;;;;7.93;7.23;;;4.40;67.20;;;;;;4962442;28;20957;-81
2021/12/11 11:03:03;;;;;;;10.40;9.50;;;4.30;65.20;;;;;;4976118;28;20454;-80
2021/12/11 11:05:30;;;;;;;9.35;8.60;;;4.40;68.50;;;;;;4960986;28;20417;-82
2021/12/11 11:07:57;;;;;;;9.23;7.93;;;4.40;67.10;;;;;;4955003;28;20457;-81
2021/12/11 11:10:35;;;;;;;8.50;7.80;;;4.50;67.20;;;;;;4954373;28;20454;-81
2021/12/11 11:13:03;;;;;;;9.13;8.37;;;4.40;65.10;;;;;;4959611;28;20915;-81
2021/12/11 11:15:30;;;;;;;8.00;7.30;;;4.50;66.30;;;;;;4977157;28;20449;-81
2021/12/11 11:17:56;;;;;;;9.37;8.67;;;4.40;63.20;;;;;;4977419;28;20493;-81
2021/12/11 11:20:29;;;;;;;9.27;8.53;;;4.40;66.60;;;;;;4978054;28;20588;-88
2021/12/11 11:22:55;;;;;;;7.97;7.37;;;4.50;63.70;;;;;;4980068;28;20438;-90
2021/12/11 11:25:26;;;;;;;8.83;8.10;;;4.40;63.60;;;;;;4979982;28;20446;-85
2021/12/11 11:28:00;;;;;;;8.97;8.17;;;4.40;64.10;;;;;;4978990;28;20500;-88
2021/12/11 11:30:34;;;;;;;7.73;7.13;;;4.30;62.70;;;;;;4980125;28;20478;-89
2021/12/11 11:33:02;;;;;;;7.60;7.00;;;4.30;62.00;;;;;;4979319;28;20969;-90
2021/12/11 11:35:32;;;;;;;9.60;8.90;;;4.30;64.00;;;;;;4978511;28;20970;-82
2021/12/11 11:38:00;;;;;;;8.90;8.17;;;4.40;65.50;;;;;;4975163;28;20489;-82
2021/12/11 11:40:32;;;;;;;9.00;8.20;;;4.40;62.40;;;;;;4957712;28;20528;-82
2021/12/11 11:42:59;;;;;;;9.93;9.10;;;4.40;65.00;;;;;;4958432;28;20466;-81
2021/12/11 11:45:27;;;;;;;8.03;7.43;;;4.50;67.00;;;;;;4958065;28;20873;-81
2021/12/11 11:47:54;;;;;;;8.93;8.23;;;4.50;62.50;;;;;;4960878;28;20817;-81
2021/12/11 11:50:24;;;;;;;8.57;7.87;;;4.50;64.70;;;;;;4963207;28;20454;-82
2021/12/11 11:52:49;;;;;;;9.23;8.43;;;4.50;62.10;;;;;;4959823;28;20465;-83
2021/12/11 11:55:21;;;;;;;8.87;8.17;;;4.40;63.10;;;;;;4958922;28;20532;-82
2021/12/11 11:57:50;;;;;;;8.77;7.73;;;4.50;63.50;;;;;;4957654;28;20250;-81
2021/12/11 12:00:23;;;;;;;9.30;8.47;;;4.50;64.60;;;;;;4958543;28;20441;-82
2021/12/11 12:02:49;;;;;;;8.47;7.77;;;4.50;62.00;;;;;;4990468;28;20492;-82
2021/12/11 12:05:14;;;;;;;8.53;7.73;;;4.50;63.60;;;;;;4959890;28;20457;-82
2021/12/11 12:07:41;;;;;;;8.40;7.70;;;4.50;66.40;;;;;;4959131;28;20449;-82
2021/12/11 12:10:20;;;;;;;9.20;8.50;;;4.50;62.10;;;;;;4957556;28;20265;-81
2021/12/11 12:12:46;;;;;;;7.80;7.13;;;4.40;62.10;;;;;;4958679;28;20521;-82
2021/12/11 12:15:18;;;;;;;9.03;8.17;;;4.40;61.40;;;;;;4959481;28;20578;-84
2021/12/11 12:17:44;;;;;;;8.80;8.10;;;4.50;61.80;;;;;;4959261;28;20484;-83
2021/12/11 12:20:12;;;;;;;9.53;7.87;;;4.50;60.50;;;;;;4958779;28;20454;-82
2021/12/11 12:22:47;;;;;;;8.80;8.10;;;4.50;60.30;;;;;;4957926;28;20317;-78
2021/12/11 12:25:14;;;;;;;7.80;7.20;;;4.50;62.70;;;;;;4974352;28;20461;-83
2021/12/11 12:27:42;;;;;;;8.07;7.37;;;4.50;59.30;;;;;;4959331;28;20508;-83
2021/12/11 12:30:24;;;;;;;9.47;8.67;;;4.50;59.90;;;;;;4953261;28;20462;-82
2021/12/11 12:32:54;;;;;;;7.97;7.33;;;4.50;63.60;;;;;;4937942;28;20691;-82
2021/12/11 12:35:20;;;;;;;8.90;8.10;;;4.50;62.20;;;;;;4941526;28;20450;-83
2021/12/11 12:37:47;;;;;;;7.70;7.03;;;4.50;61.00;;;;;;4939242;28;20462;-83
2021/12/11 12:40:37;;;;;;;7.80;7.20;;;4.50;59.10;;;;;;4938888;28;20764;-83
2021/12/11 12:43:13;;;;;;;8.00;7.30;;;4.50;58.80;;;;;;4957217;28;20462;-82
2021/12/11 12:45:42;;;;;;;7.27;6.67;;;4.50;62.10;;;;;;4942955;28;20826;-83
2021/12/11 12:48:12;;;;;;;10.37;9.47;;;4.50;59.30;;;;;;4943488;28;20450;-83
2021/12/11 12:50:43;;;;;;;7.33;6.73;;;4.40;57.70;;;;;;4941043;28;20445;-83
2021/12/11 12:53:10;;;;;;;7.90;7.30;;;4.40;57.90;;;;;;4941147;28;20809;-83
2021/12/11 12:55:51;;;;;;;7.63;7.03;;;4.40;62.40;;;;;;4943939;28;20517;-89
2021/12/11 12:58:24;;;;;;;7.93;7.23;;;4.40;58.10;;;;;;4945074;28;20450;-88
2021/12/11 13:01:04;;;;;;;6.90;6.30;;;4.50;58.10;;;;;;4944180;28;20461;-88
2021/12/11 13:03:33;;;;;;;6.90;6.30;;;4.60;57.70;;;;;;4955764;28;20457;-89
2021/12/11 13:06:03;;;;;;;8.03;7.23;;;4.50;55.40;;;;;;4962685;28;20460;-90
2021/12/11 13:08:36;;;;;;;7.30;6.70;;;4.40;59.00;;;;;;4964830;28;20453;-90
2021/12/11 13:11:09;;;;;;;6.43;5.90;;;4.40;56.80;;;;;;4964921;28;20880;-86
2021/12/11 13:13:36;;;;;;;7.10;6.50;;;4.50;56.50;;;;;;4966278;28;20546;-89
2021/12/11 13:16:09;;;;;;;7.80;7.10;;;4.50;57.00;;;;;;4965652;28;20454;-90
2021/12/11 13:18:38;;;;;;;7.17;6.50;;;4.50;55.20;;;;;;4968374;28;20478;-91
2021/12/11 13:21:09;;;;;;;8.77;7.67;;;4.50;59.10;;;;;;4972867;28;20436;-88
2021/12/11 13:23:38;;;;;;;7.17;6.60;;;4.60;56.80;;;;;;4966689;28;20462;-87
2021/12/11 13:26:06;;;;;;;8.47;7.87;;;4.60;59.80;;;;;;4966212;28;20875;-90
2021/12/11 13:28:39;;;;;;;10.10;9.20;;;4.60;59.70;;;;;;4963949;28;20541;-85
2021/12/11 13:31:18;;;;;;;8.20;7.53;;;4.60;57.40;;;;;;4961271;28;20497;-87
2021/12/11 13:33:44;;;;;;;7.50;6.90;;;4.60;57.40;;;;;;4961600;28;20508;-85